Time;durP1;ratioP1;P1;durP2;ratioP2;P2;SDS_P1;SDS_P2;PMS_P1;PMS_P2;Temp;Humidity;BMP_temperature;BMP_pressure;BME280_temperature;BME280_humidity;BME280_pressure;Samples;Min_cycle;Max_cycle;Signal;HPM_P1;HPM_P2
2023/03/14 00:00:51;;;;;;;7.13;2.20;;;;;;;10.73;100.00;98876.09;5089593;28;20085;-66
2023/03/14 00:03:16;;;;;;;3.08;2.03;;;;;;;10.73;100.00;98878.75;5089531;28;20497;-65
2023/03/14 00:05:42;;;;;;;8.88;2.38;;;;;;;10.70;100.00;98876.59;5089574;28;20502;-66
2023/03/14 00:08:07;;;;;;;7.72;2.38;;;;;;;10.67;100.00;98877.09;5089578;28;20085;-65
2023/03/14 00:10:32;;;;;;;8.88;2.35;;;;;;;10.65;100.00;98876.53;5089623;28;20734;-65
2023/03/14 00:12:58;;;;;;;4.78;2.60;;;;;;;10.64;100.00;98882.91;5089470;28;20032;-65
2023/03/14 00:15:23;;;;;;;4.68;1.70;;;;;;;10.64;100.00;98881.06;5034084;28;1139748;-65
2023/03/14 00:17:48;;;;;;;6.43;1.88;;;;;;;10.67;100.00;98851.22;5070685;28;20048;-65
2023/03/14 00:20:14;;;;;;;5.80;1.80;;;;;;;10.68;100.00;98874.16;5069244;28;20025;-65
2023/03/14 00:22:41;;;;;;;7.18;1.35;;;;;;;10.65;100.00;98872.00;5070545;28;20043;-65
2023/03/14 00:25:08;;;;;;;3.65;1.55;;;;;;;10.61;100.00;98888.72;5070771;28;20032;-65
2023/03/14 00:27:33;;;;;;;4.50;1.40;;;;;;;10.56;100.00;98875.31;5070626;28;20042;-65
2023/03/14 00:29:58;;;;;;;10.30;1.58;;;;;;;10.58;100.00;98881.22;5070623;28;20020;-66
2023/03/14 00:32:24;;;;;;;5.70;1.67;;;;;;;10.57;100.00;98891.06;5070688;28;20029;-65
2023/03/14 00:34:49;;;;;;;2.20;1.15;;;;;;;10.57;99.31;98885.75;5070546;28;20104;-65
2023/03/14 00:37:15;;;;;;;7.40;1.42;;;;;;;10.53;98.90;98906.75;5070514;28;20028;-65
2023/03/14 00:39:40;;;;;;;6.35;1.50;;;;;;;10.46;98.32;98908.78;5089702;28;20032;-65
2023/03/14 00:42:06;;;;;;;6.18;0.90;;;;;;;10.41;98.12;98903.38;5089804;28;20077;-65
2023/03/14 00:44:34;;;;;;;6.55;1.45;;;;;;;10.34;97.59;98918.72;5089770;28;20079;-65
2023/03/14 00:47:00;;;;;;;4.68;1.33;;;;;;;10.38;95.38;98905.72;5089742;28;20032;-65
2023/03/14 00:49:25;;;;;;;8.05;1.67;;;;;;;10.34;96.04;98905.38;5089748;28;20077;-65
2023/03/14 00:51:51;;;;;;;2.83;1.35;;;;;;;10.32;96.72;98915.47;5089600;28;20032;-65
2023/03/14 00:54:18;;;;;;;8.88;2.33;;;;;;;10.41;95.28;98914.03;5089582;28;20085;-65
2023/03/14 00:56:43;;;;;;;5.22;1.60;;;;;;;10.43;95.79;98911.13;5089351;28;20032;-65
2023/03/14 00:59:09;;;;;;;3.28;1.55;;;;;;;10.46;96.16;98918.63;5088395;28;20039;-65
2023/03/14 01:01:34;;;;;;;8.18;2.05;;;;;;;10.50;95.15;98895.75;5089653;28;20085;-65
2023/03/14 01:03:59;;;;;;;8.32;1.55;;;;;;;10.49;95.11;98902.97;5088030;28;20387;-65
2023/03/14 01:06:27;;;;;;;5.53;1.20;;;;;;;10.50;95.00;98901.91;5089253;28;20021;-65
2023/03/14 01:08:53;;;;;;;7.53;1.45;;;;;;;10.48;95.26;98908.56;5089209;28;20107;-70
2023/03/14 01:11:22;;;;;;;2.90;1.35;;;;;;;10.48;95.44;98912.03;5089301;28;20040;-70
2023/03/14 01:13:48;;;;;;;4.38;1.45;;;;;;;10.45;95.32;98901.00;5089033;28;20030;-70
2023/03/14 01:16:14;;;;;;;4.72;0.95;;;;;;;10.45;95.02;98891.19;5083550;28;20028;-70
2023/03/14 01:18:43;;;;;;;5.45;1.73;;;;;;;10.43;94.96;98889.81;5088815;28;20032;-70
2023/03/14 01:21:15;;;;;;;4.07;1.08;;;;;;;10.43;94.95;98897.81;5069685;28;20040;-70
2023/03/14 01:23:41;;;;;;;6.70;1.00;;;;;;;10.38;94.63;98885.22;5069800;28;20453;-70
2023/03/14 01:26:11;;;;;;;3.95;1.48;;;;;;;10.46;94.49;98886.66;5086744;28;20027;-70
2023/03/14 01:28:37;;;;;;;5.78;1.17;;;;;;;10.46;94.77;98892.00;5069665;28;20032;-70
2023/03/14 01:31:07;;;;;;;3.35;1.25;;;;;;;10.43;94.67;98890.63;5071255;28;20382;-70
2023/03/14 01:33:33;;;;;;;7.40;0.88;;;;;;;10.43;94.86;98887.16;5088934;28;20036;-70
2023/03/14 01:35:58;;;;;;;5.88;2.53;;;;;;;10.41;94.81;98881.25;5088242;28;20383;-70
2023/03/14 01:38:24;;;;;;;2.70;1.00;;;;;;;10.37;94.33;98870.25;5088927;28;20085;-70
2023/03/14 01:40:49;;;;;;;5.72;1.10;;;;;;;10.34;94.47;98869.94;5088822;28;20036;-70
2023/03/14 01:43:17;;;;;;;5.07;1.38;;;;;;;10.37;94.30;98872.91;5070655;28;20032;-70
2023/03/14 01:46:14;;;;;;;5.43;1.48;;;;;;;10.40;95.34;98871.63;5089154;28;20356;-70
2023/03/14 01:49:07;;;;;;;6.70;1.63;;;;;;;10.37;94.15;98864.13;5086225;28;20032;-70
2023/03/14 01:51:36;;;;;;;6.28;1.50;;;;;;;10.38;93.85;98855.09;5089127;28;20035;-70
2023/03/14 01:54:14;;;;;;;5.68;0.90;;;;;;;10.37;94.12;98848.13;5086406;28;20033;-70
2023/03/14 01:56:44;;;;;;;3.13;1.05;;;;;;;10.37;93.95;98850.81;5069394;28;20434;-70
2023/03/14 01:59:11;;;;;;;2.63;1.10;;;;;;;10.32;94.66;98846.19;5069607;28;20085;-70
2023/03/14 02:01:37;;;;;;;7.88;1.58;;;;;;;10.32;95.18;98848.84;5075025;28;20029;-70
2023/03/14 02:04:06;;;;;;;3.60;1.65;;;;;;;10.26;96.64;98839.16;5069473;28;20476;-70
2023/03/14 02:06:47;;;;;;;8.20;1.95;;;;;;;10.26;95.62;98842.63;5081552;28;20020;-70
2023/03/14 02:09:12;;;;;;;6.63;1.30;;;;;;;10.24;96.02;98854.56;5088630;28;20020;-70
2023/03/14 02:11:38;;;;;;;4.97;1.48;;;;;;;10.24;96.14;98842.09;5075679;28;20402;-70
2023/03/14 02:14:04;;;;;;;6.97;1.65;;;;;;;10.24;95.98;98842.09;5085465;28;20055;-70
2023/03/14 02:16:30;;;;;;;6.75;2.83;;;;;;;10.25;96.17;98841.03;5069186;28;20033;-70
2023/03/14 02:18:55;;;;;;;9.45;1.85;;;;;;;10.22;96.39;98832.72;5073986;28;20047;-70
2023/03/14 02:21:43;;;;;;;4.88;1.50;;;;;;;10.25;96.40;98843.69;5088236;28;20096;-70
2023/03/14 02:24:20;;;;;;;6.50;1.20;;;;;;;10.25;96.60;98842.88;5088599;28;20024;-70
2023/03/14 02:27:24;;;;;;;12.68;2.38;;;;;;;10.33;97.04;98836.38;5088772;28;20024;-70
2023/03/14 02:29:59;;;;;;;5.18;1.10;;;;;;;10.24;97.07;98838.59;5088214;28;20509;-70
2023/03/14 02:32:25;;;;;;;3.75;1.50;;;;;;;10.22;96.93;98822.88;5088373;28;20123;-70
2023/03/14 02:34:56;;;;;;;5.90;2.00;;;;;;;10.27;96.60;98827.44;5088408;28;20035;-70
2023/03/14 02:37:26;;;;;;;11.82;3.50;;;;;;;10.28;96.80;98829.91;5071558;28;20391;-70
2023/03/14 02:39:52;;;;;;;7.30;2.53;;;;;;;10.23;97.05;98831.66;5082771;28;20028;-65
2023/03/14 02:42:18;;;;;;;8.38;1.98;;;;;;;10.21;97.20;98834.56;5091925;28;20509;-65
2023/03/14 02:45:08;;;;;;;5.60;2.58;;;;;;;10.16;98.01;98829.16;5092230;28;20032;-66
2023/03/14 02:47:36;;;;;;;5.68;1.30;;;;;;;10.06;98.28;98829.81;5091979;28;20490;-65
2023/03/14 02:50:08;;;;;;;5.35;1.40;;;;;;;10.00;98.71;98833.44;5091916;28;20028;-65
2023/03/14 02:52:34;;;;;;;5.82;1.52;;;;;;;9.95;99.17;98833.34;5091816;28;20039;-65
2023/03/14 02:54:59;;;;;;;10.90;2.17;;;;;;;9.94;99.68;98831.75;5091808;28;20070;-65
2023/03/14 02:57:24;;;;;;;4.13;1.50;;;;;;;9.94;99.82;98829.09;5090568;28;20024;-65
2023/03/14 02:59:50;;;;;;;12.90;1.63;;;;;;;9.94;99.89;98826.44;5091866;28;20040;-66
2023/03/14 03:02:15;;;;;;;9.20;1.92;;;;;;;9.98;100.00;98830.22;5091779;28;20024;-65
2023/03/14 03:04:41;;;;;;;8.55;1.42;;;;;;;9.99;99.86;98821.19;5091544;28;20088;-65
2023/03/14 03:07:06;;;;;;;4.60;1.30;;;;;;;9.98;100.00;98824.06;5091606;28;20433;-65
2023/03/14 03:09:31;;;;;;;5.28;1.42;;;;;;;10.02;100.00;98828.69;5091650;28;20398;-65
2023/03/14 03:11:57;;;;;;;5.53;1.60;;;;;;;10.04;99.59;98831.13;5091883;28;20035;-65
2023/03/14 03:14:22;;;;;;;7.72;3.00;;;;;;;10.05;99.97;98836.19;5091632;28;20146;-65
2023/03/14 03:16:47;;;;;;;8.65;1.90;;;;;;;10.05;100.00;98830.06;5091406;28;20036;-65
2023/03/14 03:19:13;;;;;;;4.95;1.40;;;;;;;10.05;100.00;98825.53;5091493;28;20072;-65
2023/03/14 03:21:39;;;;;;;4.85;1.40;;;;;;;9.98;100.00;98829.41;5091223;28;20039;-65
2023/03/14 03:24:04;;;;;;;7.95;1.98;;;;;;;10.03;100.00;98829.47;5091303;28;20027;-66
2023/03/14 03:26:30;;;;;;;6.18;2.22;;;;;;;10.05;100.00;98832.72;5091248;28;20024;-65
2023/03/14 03:28:55;;;;;;;3.60;1.67;;;;;;;10.06;100.00;98824.50;5091412;28;20129;-65
2023/03/14 03:31:20;;;;;;;3.72;1.58;;;;;;;10.01;100.00;98816.44;5091287;28;20035;-65
2023/03/14 03:33:46;;;;;;;5.72;1.30;;;;;;;10.00;100.00;98812.13;5091154;28;20028;-65
2023/03/14 03:36:11;;;;;;;7.85;1.52;;;;;;;9.99;100.00;98813.19;5091124;28;20035;-65
2023/03/14 03:38:37;;;;;;;11.73;2.85;;;;;;;9.98;100.00;98818.75;5090938;28;20035;-65
2023/03/14 03:41:04;;;;;;;7.40;2.05;;;;;;;9.97;100.00;98812.63;5090931;28;20475;-65
2023/03/14 03:43:30;;;;;;;9.57;1.15;;;;;;;10.00;100.00;98827.31;5090982;28;20092;-65
2023/03/14 03:45:55;;;;;;;7.68;1.83;;;;;;;9.99;100.00;98813.19;5071541;28;20025;-65
2023/03/14 03:48:21;;;;;;;6.43;2.08;;;;;;;9.98;100.00;98816.09;5071471;28;20040;-65
2023/03/14 03:50:47;;;;;;;14.52;3.03;;;;;;;9.96;100.00;98810.22;5070275;28;20115;-65
2023/03/14 03:53:12;;;;;;;6.47;2.53;;;;;;;9.94;100.00;98810.44;5071341;28;20025;-65
2023/03/14 03:55:42;;;;;;;6.82;1.42;;;;;;;9.93;100.00;98798.19;5071356;28;20035;-65
2023/03/14 03:58:07;;;;;;;5.25;1.17;;;;;;;9.92;100.00;98803.75;5071597;28;20183;-65
2023/03/14 04:00:33;;;;;;;3.80;1.90;;;;;;;9.90;100.00;98801.31;5071154;28;20511;-65
2023/03/14 04:02:59;;;;;;;10.13;3.78;;;;;;;9.87;100.00;98791.97;5071542;28;20041;-65
2023/03/14 04:05:24;;;;;;;13.15;2.20;;;;;;;9.86;100.00;98794.88;5071230;28;20033;-65
2023/03/14 04:07:50;;;;;;;8.98;2.38;;;;;;;9.83;100.00;98803.38;5069841;28;20032;-65
2023/03/14 04:10:15;;;;;;;2.45;1.05;;;;;;;9.81;100.00;98794.81;5071151;28;20036;-65
2023/03/14 04:12:40;;;;;;;4.35;1.13;;;;;;;9.82;100.00;98807.88;5071024;28;20051;-65
2023/03/14 04:15:06;;;;;;;9.23;3.17;;;;;;;9.80;100.00;98804.66;5070755;28;20181;-65
2023/03/14 04:17:32;;;;;;;8.35;1.15;;;;;;;9.77;100.00;98801.66;5070755;28;20043;-65
2023/03/14 04:19:57;;;;;;;4.30;1.10;;;;;;;9.74;100.00;98802.13;5070837;28;20036;-65
2023/03/14 04:22:22;;;;;;;3.60;1.05;;;;;;;9.70;100.00;98791.19;5070753;28;20032;-65
2023/03/14 04:24:48;;;;;;;8.93;3.50;;;;;;;9.67;100.00;98794.31;5070800;28;20113;-65
2023/03/14 04:27:14;;;;;;;8.77;1.35;;;;;;;9.64;100.00;98802.78;5069324;28;20020;-65
2023/03/14 04:29:40;;;;;;;5.82;3.00;;;;;;;9.61;100.00;98796.06;5070728;28;20020;-65
2023/03/14 04:32:05;;;;;;;3.72;1.30;;;;;;;9.60;100.00;98799.78;5070941;28;20032;-65
2023/03/14 04:34:31;;;;;;;7.10;1.08;;;;;;;9.55;100.00;98794.38;5070588;28;20029;-65
2023/03/14 04:36:56;;;;;;;6.38;1.48;;;;;;;9.59;100.00;98798.19;5070546;28;20676;-65
2023/03/14 04:39:21;;;;;;;4.93;1.23;;;;;;;9.56;100.00;98793.34;5070742;28;20048;-65
2023/03/14 04:41:47;;;;;;;7.22;2.08;;;;;;;9.56;100.00;98788.03;5070496;28;20365;-65
2023/03/14 04:44:12;;;;;;;4.43;1.58;;;;;;;9.56;100.00;98788.03;5070375;28;20043;-65
2023/03/14 04:46:37;;;;;;;4.72;1.70;;;;;;;9.55;100.00;98777.63;5070314;28;20024;-65
2023/03/14 04:49:03;;;;;;;6.55;1.27;;;;;;;9.57;100.00;98780.84;5070143;28;20064;-65
2023/03/14 04:51:28;;;;;;;4.82;1.60;;;;;;;9.52;100.00;98770.13;5068907;28;20448;-65
2023/03/14 04:53:54;;;;;;;2.42;1.10;;;;;;;9.56;100.00;98782.72;5070578;28;20024;-65
2023/03/14 04:56:20;;;;;;;2.00;0.88;;;;;;;9.57;100.00;98780.84;5070255;28;20111;-65
2023/03/14 04:58:45;;;;;;;6.47;1.10;;;;;;;9.56;100.00;98776.56;5070108;28;20036;-65
2023/03/14 05:01:11;;;;;;;5.57;1.65;;;;;;;9.54;100.00;98765.38;5068376;28;20036;-65
2023/03/14 05:03:37;;;;;;;2.58;1.17;;;;;;;9.58;100.00;98775.28;5070596;28;20379;-65
2023/03/14 05:06:04;;;;;;;3.03;1.58;;;;;;;9.57;100.00;98791.50;5070053;28;20027;-65
2023/03/14 05:08:29;;;;;;;2.83;1.45;;;;;;;9.42;100.00;98795.50;5070087;28;20029;-65
2023/03/14 05:10:56;;;;;;;2.30;0.93;;;;;;;9.32;100.00;98787.34;5070012;28;20127;-65
2023/03/14 05:13:22;;;;;;;5.07;1.02;;;;;;;9.23;100.00;98793.28;5069936;28;20024;-65
2023/03/14 05:15:47;;;;;;;3.78;1.10;;;;;;;9.16;100.00;98798.75;5069641;28;20050;-65
2023/03/14 05:18:12;;;;;;;3.08;1.30;;;;;;;9.10;100.00;98795.19;5069926;28;20048;-65
2023/03/14 05:20:38;;;;;;;3.78;2.20;;;;;;;9.04;100.00;98787.34;5069863;28;20037;-65
2023/03/14 05:23:03;;;;;;;1.77;1.20;;;;;;;8.97;100.00;98776.88;5069650;28;20451;-65
2023/03/14 05:25:29;;;;;;;3.22;1.50;;;;;;;8.97;100.00;98788.28;5089141;28;20032;-65
2023/03/14 05:27:55;;;;;;;5.45;1.58;;;;;;;8.95;100.00;98778.94;5089286;28;20028;-65
2023/03/14 05:30:21;;;;;;;2.13;1.20;;;;;;;8.94;100.00;98780.81;5089106;28;20127;-65
2023/03/14 05:32:47;;;;;;;2.75;1.20;;;;;;;8.91;100.00;98775.97;5089113;28;20031;-65
2023/03/14 05:35:12;;;;;;;5.15;1.65;;;;;;;8.83;100.00;98756.91;5088854;28;20115;-65
2023/03/14 05:37:38;;;;;;;3.85;1.60;;;;;;;8.82;100.00;98766.75;5089057;28;20450;-65
2023/03/14 05:40:06;;;;;;;5.07;1.80;;;;;;;8.82;100.00;98771.25;5088962;28;20035;-65
2023/03/14 05:42:31;;;;;;;3.05;1.92;;;;;;;8.77;100.00;98759.47;5089261;28;20024;-65
2023/03/14 05:44:57;;;;;;;1.75;1.65;;;;;;;8.78;100.00;98768.28;5087805;28;20031;-65
2023/03/14 05:47:22;;;;;;;1.58;1.30;;;;;;;8.78;100.00;98758.44;5088982;28;20023;-65
2023/03/14 05:49:48;;;;;;;3.78;1.65;;;;;;;8.79;100.00;98767.22;5088933;28;20036;-65
2023/03/14 05:52:14;;;;;;;3.20;1.83;;;;;;;8.83;100.00;98760.41;5088834;28;20403;-65
2023/03/14 05:54:39;;;;;;;5.05;1.77;;;;;;;8.84;100.00;98758.53;5088865;28;20028;-65
2023/03/14 05:57:04;;;;;;;6.53;1.67;;;;;;;8.83;100.00;98760.41;5089082;28;20047;-65
2023/03/14 05:59:30;;;;;;;4.15;2.00;;;;;;;8.83;100.00;98763.06;5088617;28;20024;-65
2023/03/14 06:01:55;;;;;;;3.60;2.22;;;;;;;8.85;100.00;98752.16;5088528;28;20077;-66
2023/03/14 06:04:20;;;;;;;6.63;2.58;;;;;;;8.86;100.00;98754.59;5088549;28;20030;-66
2023/03/14 06:06:46;;;;;;;5.13;1.90;;;;;;;8.84;100.00;98743.38;5076891;28;20016;-66
2023/03/14 06:09:11;;;;;;;5.97;2.25;;;;;;;8.87;100.00;98750.88;5071237;28;20029;-66
2023/03/14 06:11:36;;;;;;;3.92;1.98;;;;;;;8.88;100.00;98747.19;5072115;28;20387;-66
2023/03/14 06:14:02;;;;;;;4.32;1.73;;;;;;;8.88;100.00;98744.53;5074294;28;20047;-67
2023/03/14 06:16:27;;;;;;;5.15;1.88;;;;;;;8.93;100.00;98746.47;5075697;28;20029;-68
2023/03/14 06:18:53;;;;;;;4.22;2.33;;;;;;;8.95;100.00;98747.03;5076323;28;20078;-66
2023/03/14 06:21:19;;;;;;;8.23;2.10;;;;;;;8.99;100.00;98749.00;5075603;28;20048;-66
2023/03/14 06:23:45;;;;;;;2.50;1.55;;;;;;;9.02;100.00;98749.56;5076088;28;20025;-67
2023/03/14 06:26:11;;;;;;;3.40;1.42;;;;;;;9.03;100.00;98757.28;5075974;28;20452;-66
2023/03/14 06:28:37;;;;;;;5.82;3.03;;;;;;;8.96;100.00;98752.13;5074121;28;20040;-67
2023/03/14 06:31:03;;;;;;;3.83;2.25;;;;;;;9.02;100.00;98758.34;5075214;28;20029;-66
2023/03/14 06:33:28;;;;;;;5.85;2.53;;;;;;;9.03;100.00;98751.97;5075889;28;20039;-66
2023/03/14 06:35:54;;;;;;;3.65;1.67;;;;;;;9.02;100.00;98757.53;5075364;28;20479;-66
2023/03/14 06:38:20;;;;;;;4.60;1.90;;;;;;;9.03;100.00;98764.47;5075293;28;20039;-66
2023/03/14 06:40:45;;;;;;;2.40;1.60;;;;;;;9.04;100.00;98764.25;5075189;28;20024;-66
2023/03/14 06:43:10;;;;;;;4.20;1.92;;;;;;;9.06;100.00;98758.66;5076015;28;20037;-66
2023/03/14 06:45:36;;;;;;;6.60;2.30;;;;;;;9.10;100.00;98762.47;5075243;28;20028;-67
2023/03/14 06:48:01;;;;;;;6.43;2.70;;;;;;;9.16;100.00;98772.16;5074405;28;20119;-65
2023/03/14 06:50:27;;;;;;;4.72;2.47;;;;;;;9.18;100.00;98762.88;5075459;28;20486;-66
2023/03/14 06:52:52;;;;;;;8.63;2.42;;;;;;;9.25;100.00;98773.41;5075647;28;20073;-64
2023/03/14 06:55:17;;;;;;;5.35;2.55;;;;;;;9.30;100.00;98773.47;5074868;28;20031;-65
2023/03/14 06:57:43;;;;;;;10.27;2.50;;;;;;;9.36;100.00;98780.50;5074495;28;20478;-66
2023/03/14 07:00:10;;;;;;;4.90;2.40;;;;;;;9.46;100.00;98777.22;5072975;28;20028;-66
2023/03/14 07:02:36;;;;;;;5.03;2.08;;;;;;;9.55;100.00;98770.44;5072397;28;20052;-66
2023/03/14 07:05:01;;;;;;;5.40;3.30;;;;;;;9.66;100.00;98777.53;5072089;28;20101;-66
2023/03/14 07:07:27;;;;;;;5.53;2.42;;;;;;;9.70;100.00;98777.88;5071995;28;20020;-66
2023/03/14 07:09:53;;;;;;;5.10;3.28;;;;;;;9.70;100.00;98782.38;5072113;28;20035;-66
2023/03/14 07:12:19;;;;;;;11.48;4.85;;;;;;;9.69;100.00;98783.41;5072181;28;20564;-66
2023/03/14 07:14:44;;;;;;;5.18;2.60;;;;;;;9.67;100.00;98781.00;5071892;28;20060;-66
2023/03/14 07:17:09;;;;;;;7.80;2.42;;;;;;;9.66;100.00;98792.69;5071922;28;20059;-66
2023/03/14 07:19:35;;;;;;;5.45;2.58;;;;;;;9.63;100.00;98801.16;5072063;28;20102;-66
2023/03/14 07:22:00;;;;;;;6.47;3.10;;;;;;;9.57;100.00;98794.94;5071888;28;20391;-66
2023/03/14 07:24:26;;;;;;;8.98;2.95;;;;;;;9.54;100.00;98799.97;5071555;28;20475;-66
2023/03/14 07:26:52;;;;;;;6.10;2.40;;;;;;;9.52;100.00;98802.84;5071914;28;20028;-66
2023/03/14 07:29:17;;;;;;;7.07;3.45;;;;;;;9.39;100.00;98798.63;5070342;28;20039;-66
2023/03/14 07:31:43;;;;;;;4.60;2.63;;;;;;;9.43;100.00;98841.53;5071706;28;20036;-66
2023/03/14 07:34:08;;;;;;;5.80;2.63;;;;;;;9.33;100.00;98899.91;5071567;28;20059;-66
2023/03/14 07:36:33;;;;;;;1.73;0.93;;;;;;;8.78;100.00;98907.28;5090217;28;20031;-66
2023/03/14 07:38:59;;;;;;;1.60;1.00;;;;;;;8.41;100.00;98912.03;5091053;28;20032;-66
2023/03/14 07:41:24;;;;;;;2.55;0.95;;;;;;;8.15;100.00;98929.19;5091362;28;20052;-66
2023/03/14 07:43:50;;;;;;;0.77;0.65;;;;;;;8.06;100.00;98933.19;5090870;28;20383;-70
2023/03/14 07:46:15;;;;;;;2.65;0.60;;;;;;;8.00;100.00;98936.75;5090562;28;20020;-71
2023/03/14 07:48:41;;;;;;;0.68;0.68;;;;;;;7.89;100.00;98951.63;5090923;28;20032;-71
2023/03/14 07:51:07;;;;;;;1.33;0.77;;;;;;;7.82;100.00;98959.66;5090907;28;20023;-71
2023/03/14 07:53:32;;;;;;;1.98;0.60;;;;;;;7.76;100.00;98957.91;5086380;28;20028;-69
2023/03/14 07:55:57;;;;;;;3.08;1.27;;;;;;;7.73;100.00;98976.94;5074479;28;20063;-70
2023/03/14 07:58:23;;;;;;;0.77;0.77;;;;;;;7.62;100.00;98975.84;5081944;28;20502;-70
2023/03/14 08:00:49;;;;;;;1.88;1.20;;;;;;;7.59;100.00;98986.09;5088414;28;20089;-70
2023/03/14 08:03:14;;;;;;;2.00;0.80;;;;;;;7.50;100.00;98998.03;5089148;28;20105;-70
2023/03/14 08:05:41;;;;;;;1.05;0.68;;;;;;;7.50;100.00;98998.03;5090439;28;20493;-70
2023/03/14 08:08:07;;;;;;;2.13;1.45;;;;;;;7.48;100.00;99008.88;5090456;28;20085;-70
2023/03/14 08:10:33;;;;;;;1.95;0.93;;;;;;;7.46;100.00;99009.06;5090448;28;20036;-70
2023/03/14 08:13:00;;;;;;;4.47;1.17;;;;;;;7.47;100.00;99021.31;5090301;28;20453;-70
2023/03/14 08:15:26;;;;;;;1.02;0.80;;;;;;;7.44;100.00;99028.88;5084817;28;20109;-69
2023/03/14 08:17:53;;;;;;;1.90;1.33;;;;;;;7.46;100.00;99038.25;5080671;28;20040;-69
2023/03/14 08:20:19;;;;;;;1.55;1.08;;;;;;;7.47;100.00;99050.50;5070581;28;20085;-70
2023/03/14 08:22:45;;;;;;;1.73;1.00;;;;;;;7.46;100.00;99059.47;5070646;28;20111;-71
2023/03/14 08:25:10;;;;;;;1.02;0.93;;;;;;;7.48;100.00;99064.56;5070814;28;20134;-70
2023/03/14 08:27:38;;;;;;;2.60;1.52;;;;;;;7.56;100.00;99072.22;5070778;28;20120;-70
2023/03/14 08:30:05;;;;;;;3.47;1.63;;;;;;;7.64;100.00;99079.88;5072192;28;20024;-72
2023/03/14 08:32:30;;;;;;;2.38;1.15;;;;;;;7.72;100.00;99091.25;5073362;28;20086;-69
2023/03/14 08:34:56;;;;;;;4.55;0.93;;;;;;;7.78;100.00;99108.94;5072709;28;20040;-71
2023/03/14 08:37:21;;;;;;;1.90;1.42;;;;;;;7.89;100.00;99121.47;5073147;28;20028;-72
2023/03/14 08:39:47;;;;;;;3.50;1.10;;;;;;;7.91;100.00;99124.69;5073051;28;20478;-73
2023/03/14 08:42:12;;;;;;;2.97;0.80;;;;;;;7.91;100.00;99130.00;5071453;28;20391;-74
2023/03/14 08:44:38;;;;;;;2.67;0.80;;;;;;;7.95;100.00;99131.19;5073401;28;20039;-72
2023/03/14 08:47:04;;;;;;;3.70;1.13;;;;;;;8.02;100.00;99141.75;5073255;28;20027;-72
2023/03/14 08:49:29;;;;;;;7.35;1.40;;;;;;;7.99;100.00;99144.84;5072020;28;20369;-72
2023/03/14 08:51:54;;;;;;;1.70;0.80;;;;;;;8.01;100.00;99170.13;5069982;28;20390;-70
2023/03/14 08:54:20;;;;;;;2.22;1.20;;;;;;;7.94;100.00;99165.91;5070078;28;20028;-70
2023/03/14 08:56:45;;;;;;;2.22;1.40;;;;;;;7.86;100.00;99175.81;5070357;28;20028;-70
2023/03/14 08:59:10;;;;;;;2.92;1.10;;;;;;;7.83;100.00;99183.38;5072722;28;20024;-72
2023/03/14 09:01:36;;;;;;;5.90;1.90;;;;;;;7.73;100.00;99191.88;5089633;28;20099;-71
2023/03/14 09:04:01;;;;;;;4.22;1.15;;;;;;;7.61;100.00;99196.28;5089740;28;20170;-72
2023/03/14 09:06:27;;;;;;;3.45;1.35;;;;;;;7.53;100.00;99207.97;5089419;28;20020;-73
2023/03/14 09:08:52;;;;;;;4.60;1.13;;;;;;;7.40;100.00;99222.16;5089385;28;20043;-72
2023/03/14 09:11:18;;;;;;;0.95;0.70;;;;;;;7.38;100.00;99226.03;5089576;28;20483;-72
2023/03/14 09:13:43;;;;;;;2.95;0.60;;;;;;;7.31;100.00;99242.00;5088929;28;20035;-70
2023/03/14 09:16:09;;;;;;;1.05;0.80;;;;;;;7.38;100.00;99242.75;5087895;28;20089;-72
2023/03/14 09:18:35;;;;;;;3.22;1.50;;;;;;;7.39;100.00;99254.19;5089281;28;20035;-72
2023/03/14 09:21:00;;;;;;;3.85;1.38;;;;;;;7.41;100.00;99262.72;5089198;28;20108;-72
2023/03/14 09:23:26;;;;;;;2.00;1.60;;;;;;;7.37;100.00;99256.25;5089206;28;20024;-72
2023/03/14 09:25:56;;;;;;;3.20;1.30;;;;;;;7.54;100.00;99289.16;5089116;28;20032;-72
2023/03/14 09:28:21;;;;;;;5.72;1.83;;;;;;;7.49;100.00;99290.84;5089018;28;20043;-72
2023/03/14 09:30:47;;;;;;;3.42;1.90;;;;;;;7.25;100.00;99333.00;5089066;28;20024;-72
2023/03/14 09:33:12;;;;;;;1.25;1.13;;;;;;;7.03;100.00;99345.78;5089056;28;20032;-73
2023/03/14 09:35:38;;;;;;;1.42;0.65;;;;;;;6.84;100.00;99354.59;5089175;28;20388;-71
2023/03/14 09:38:03;;;;;;;0.75;0.75;;;;;;;6.63;100.00;99360.97;5088932;28;20059;-72
2023/03/14 09:40:34;;;;;;;1.00;0.60;;;;;;;6.40;100.00;99359.63;5088979;28;20039;-72
2023/03/14 09:43:00;;;;;;;0.30;0.30;;;;;;;6.23;100.00;99390.97;5088955;28;20387;-72
2023/03/14 09:45:29;;;;;;;1.50;0.45;;;;;;;6.07;100.00;99397.50;5088760;28;20032;-71
2023/03/14 09:47:56;;;;;;;1.58;1.38;;;;;;;6.06;100.00;99419.69;5091048;28;20104;-72
2023/03/14 09:50:24;;;;;;;0.45;0.45;;;;;;;6.18;100.00;99432.31;5093061;28;20483;-71
2023/03/14 09:52:55;;;;;;;3.08;0.88;;;;;;;6.35;100.00;99438.84;5093223;28;20039;-72
2023/03/14 09:55:22;;;;;;;1.42;0.82;;;;;;;6.59;100.00;99438.22;5073510;28;20459;-72
2023/03/14 09:57:58;;;;;;;4.40;0.80;;;;;;;6.77;100.00;99455.31;5073435;28;20032;-71
2023/03/14 10:00:28;;;;;;;1.70;0.70;;;;;;;6.88;100.00;99459.97;5092513;28;20596;-71
2023/03/14 10:03:21;;;;;;;3.03;0.60;;;;;;;6.96;100.00;99477.50;5093053;28;20036;-71
2023/03/14 10:05:46;;;;;;;2.88;0.75;;;;;;;7.03;100.00;99494.22;5092732;28;20027;-71
2023/03/14 10:08:13;;;;;;;17.65;2.22;;;;;;;7.07;100.00;99506.03;5092683;28;20032;-72
2023/03/14 10:10:39;;;;;;;2.15;1.00;;;;;;;7.06;100.00;99516.84;5092679;28;20028;-71
2023/03/14 10:13:29;;;;;;;1.50;0.60;;;;;;;7.15;100.00;99539.44;5092579;28;20031;-72
2023/03/14 10:16:02;;;;;;;1.30;0.68;;;;;;;7.25;100.00;99538.00;5092349;28;20056;-72
2023/03/14 10:18:30;;;;;;;6.00;2.08;;;;;;;7.34;100.00;99543.91;5092498;28;20030;-72
2023/03/14 10:21:06;;;;;;;4.32;0.80;;;;;;;7.32;100.00;99550.47;5092434;28;20032;-72
2023/03/14 10:23:33;;;;;;;4.20;1.20;;;;;;;7.21;100.00;99587.19;5092609;28;20050;-72
2023/03/14 10:26:12;;;;;;;1.33;0.85;;;;;;;7.12;97.80;99596.34;5073003;28;20107;-72
2023/03/14 10:28:39;;;;;;;6.32;1.45;;;;;;;7.16;95.27;99616.16;5091996;28;20114;-72
2023/03/14 10:31:05;;;;;;;5.05;1.40;;;;;;;7.23;94.81;99605.53;5092137;28;20073;-72
2023/03/14 10:33:33;;;;;;;4.50;1.55;;;;;;;7.31;96.27;99615.09;5092436;28;20040;-72
2023/03/14 10:36:01;;;;;;;5.35;1.23;;;;;;;7.46;94.80;99627.13;5072815;28;20032;-72
2023/03/14 10:38:32;;;;;;;9.88;1.50;;;;;;;7.49;90.51;99646.31;5072719;28;20032;-72
2023/03/14 10:40:58;;;;;;;8.85;1.90;;;;;;;7.46;86.37;99658.16;5092056;28;20030;-72
2023/03/14 10:43:43;;;;;;;4.88;1.58;;;;;;;7.50;86.79;99664.69;5092127;28;20105;-72
2023/03/14 10:46:12;;;;;;;4.82;1.15;;;;;;;7.54;89.02;99657.13;5091947;28;20572;-72
2023/03/14 10:48:41;;;;;;;6.32;1.40;;;;;;;7.69;90.22;99679.75;5091897;28;20069;-72
2023/03/14 10:51:15;;;;;;;4.10;1.00;;;;;;;7.78;88.10;99687.50;5092083;28;20039;-72
2023/03/14 10:53:49;;;;;;;15.45;2.97;;;;;;;7.73;85.90;99689.94;5091904;28;20024;-72
2023/03/14 10:56:18;;;;;;;6.80;2.90;;;;;;;7.75;85.32;99706.50;5091725;28;20093;-72
2023/03/14 10:58:57;;;;;;;10.02;3.08;;;;;;;7.82;87.43;99712.63;5091150;28;20028;-72
2023/03/14 11:01:36;;;;;;;8.40;2.38;;;;;;;7.93;86.47;99724.44;5091493;28;20028;-65
2023/03/14 11:04:23;;;;;;;7.22;3.28;;;;;;;7.90;85.55;99746.91;5091608;28;20521;-65
2023/03/14 11:07:06;;;;;;;9.70;2.22;;;;;;;7.82;85.18;99757.75;5091599;28;20100;-65
2023/03/14 11:09:41;;;;;;;11.05;2.20;;;;;;;7.74;85.54;99763.25;5091441;28;20504;-65
2023/03/14 11:12:31;;;;;;;6.40;1.48;;;;;;;7.88;87.64;99757.72;5091567;28;20106;-65
2023/03/14 11:15:27;;;;;;;4.65;1.63;;;;;;;8.03;85.40;99767.31;5071650;28;20055;-65
2023/03/14 11:18:17;;;;;;;11.98;2.58;;;;;;;8.03;83.72;99780.59;5091052;28;20043;-65
2023/03/14 11:21:08;;;;;;;7.13;2.38;;;;;;;8.04;86.08;99792.81;5091414;28;20433;-65
2023/03/14 11:24:09;;;;;;;7.97;1.70;;;;;;;7.68;90.67;99828.59;5091473;28;20032;-64
2023/03/14 11:26:48;;;;;;;10.20;1.90;;;;;;;6.82;97.61;99865.47;5091472;28;20071;-64
2023/03/14 11:29:29;;;;;;;6.63;1.20;;;;;;;6.17;100.00;99860.38;5071843;28;20088;-64
2023/03/14 11:32:01;;;;;;;5.15;1.60;;;;;;;5.85;100.00;99849.28;5071899;28;20132;-64
2023/03/14 11:34:46;;;;;;;15.05;2.17;;;;;;;5.66;100.00;99852.59;5071901;28;20426;-64
2023/03/14 11:37:26;;;;;;;10.77;2.35;;;;;;;5.70;100.00;99869.69;5071759;28;20447;-65